createdAt,value
2022-09-01T00:00:27.449Z,0.00
2022-09-01T00:01:27.376Z,0.00
2022-09-01T00:02:27.357Z,0.00
2022-09-01T00:03:27.223Z,0.00
2022-09-01T00:04:27.359Z,0.00
2022-09-01T00:05:27.078Z,0.00
2022-09-01T00:06:26.993Z,0.00
2022-09-01T00:07:26.915Z,0.00
2022-09-01T00:08:26.835Z,0.00
2022-09-01T00:09:26.756Z,0.00
2022-09-01T00:10:26.679Z,0.00
2022-09-01T00:11:26.606Z,0.00
2022-09-01T00:12:26.529Z,0.00
2022-09-01T00:13:26.450Z,0.00
2022-09-01T00:14:30.756Z,0.00
2022-09-01T00:15:26.310Z,0.00
2022-09-01T00:16:26.221Z,0.00
2022-09-01T00:17:26.147Z,0.00
2022-09-01T00:18:26.063Z,0.00
2022-09-01T00:19:25.989Z,0.00
2022-09-01T00:20:25.914Z,0.00
2022-09-01T00:21:25.837Z,0.00
2022-09-01T00:22:25.763Z,0.00
2022-09-01T00:23:25.686Z,0.00
2022-09-01T00:24:25.610Z,0.00
2022-09-01T00:25:25.530Z,0.00
2022-09-01T00:26:25.451Z,0.00
2022-09-01T00:27:30.538Z,0.00
2022-09-01T00:28:29.239Z,0.00
2022-09-01T00:29:25.225Z,0.00
2022-09-01T00:30:25.153Z,0.00
2022-09-01T00:31:25.120Z,0.00
2022-09-01T00:32:24.992Z,0.00
2022-09-01T00:33:24.920Z,0.00
2022-09-01T00:34:24.837Z,0.00
2022-09-01T00:35:24.758Z,0.00
2022-09-01T00:36:24.685Z,0.00
2022-09-01T00:37:24.614Z,0.00
2022-09-01T00:38:24.538Z,0.00
2022-09-01T00:39:24.452Z,0.00
2022-09-01T00:40:24.445Z,0.00
2022-09-01T00:41:24.301Z,0.00
2022-09-01T00:42:24.223Z,0.00
2022-09-01T00:43:24.152Z,0.00
2022-09-01T00:44:24.366Z,0.00
2022-09-01T00:45:23.996Z,0.00
2022-09-01T00:46:23.968Z,0.00
2022-09-01T00:47:23.839Z,0.00
2022-09-01T00:48:23.761Z,0.00
2022-09-01T00:49:23.686Z,0.00
2022-09-01T00:50:23.607Z,0.00
2022-09-01T00:51:23.530Z,0.00
2022-09-01T00:52:23.453Z,0.00
2022-09-01T00:53:23.376Z,0.00
2022-09-01T00:54:23.303Z,0.00
2022-09-01T00:55:23.224Z,0.00
2022-09-01T00:56:23.150Z,0.00
2022-09-01T00:57:23.076Z,0.00
2022-09-01T00:58:23.165Z,0.00
2022-09-01T00:59:22.918Z,0.00
2022-09-01T01:00:22.839Z,0.00
2022-09-01T01:01:22.801Z,0.00
2022-09-01T01:02:22.736Z,0.00
2022-09-01T01:03:22.610Z,0.00
2022-09-01T01:04:22.550Z,0.00
2022-09-01T01:05:22.455Z,0.00
2022-09-01T01:06:22.379Z,0.00
2022-09-01T01:07:22.301Z,0.00
2022-09-01T01:08:22.228Z,0.00
2022-09-01T01:09:22.148Z,0.00
2022-09-01T01:10:22.075Z,0.00
2022-09-01T01:11:21.993Z,0.00
2022-09-01T01:12:21.917Z,0.00
2022-09-01T01:13:21.838Z,0.00
2022-09-01T01:14:21.764Z,0.00
2022-09-01T01:15:21.704Z,0.00
2022-09-01T01:16:21.626Z,0.00
2022-09-01T01:17:21.536Z,0.00
2022-09-01T01:18:23.211Z,0.00
2022-09-01T01:19:21.381Z,0.00
2022-09-01T01:20:21.307Z,0.00
2022-09-01T01:21:21.225Z,0.00
2022-09-01T01:22:21.150Z,0.00
2022-09-01T01:23:21.073Z,0.00
2022-09-01T01:24:21.008Z,0.00
2022-09-01T01:25:20.921Z,0.00
2022-09-01T01:26:20.840Z,0.00
2022-09-01T01:27:20.765Z,0.00
2022-09-01T01:28:21.109Z,0.00
2022-09-01T01:29:20.612Z,0.00
2022-09-01T01:30:20.534Z,0.00
2022-09-01T01:31:20.537Z,0.00
2022-09-01T01:32:20.384Z,0.00
2022-09-01T01:33:20.301Z,0.00
2022-09-01T01:34:20.228Z,0.00
2022-09-01T01:35:20.150Z,0.00
2022-09-01T01:36:20.081Z,0.00
2022-09-01T01:37:20.001Z,0.00
2022-09-01T01:38:20.054Z,0.00
2022-09-01T01:39:19.843Z,0.00
2022-09-01T01:40:19.836Z,0.00
2022-09-01T01:41:19.697Z,0.00
2022-09-01T01:42:19.612Z,0.00
2022-09-01T01:43:19.529Z,0.00
2022-09-01T01:44:19.459Z,0.00
2022-09-01T01:45:19.377Z,0.00
2022-09-01T01:46:19.420Z,0.00
2022-09-01T01:47:19.229Z,0.00
2022-09-01T01:48:19.324Z,0.00
2022-09-01T01:49:19.071Z,0.00
2022-09-01T01:50:18.994Z,0.00
2022-09-01T01:51:18.921Z,0.00
2022-09-01T01:52:18.841Z,0.00
2022-09-01T01:53:18.768Z,0.00
2022-09-01T01:54:18.686Z,0.00
2022-09-01T01:55:18.614Z,0.00
2022-09-01T01:56:18.531Z,0.00
2022-09-01T01:57:25.626Z,0.00
2022-09-01T01:59:22.306Z,0.00
2022-09-01T02:00:28.721Z,0.00
2022-09-01T02:01:22.191Z,0.00
2022-09-01T02:02:22.094Z,0.00
2022-09-01T02:03:22.000Z,0.00
2022-09-01T02:04:21.897Z,0.00
2022-09-01T02:05:21.822Z,0.00
2022-09-01T02:06:21.742Z,0.00
2022-09-01T02:07:21.667Z,0.00
2022-09-01T02:08:21.594Z,0.00
2022-09-01T02:09:21.516Z,0.00
2022-09-01T02:10:21.435Z,0.00
2022-09-01T02:11:21.368Z,0.00
2022-09-01T02:12:21.280Z,0.00
2022-09-01T02:13:21.202Z,0.00
2022-09-01T02:14:21.127Z,0.00
2022-09-01T02:15:21.053Z,0.00
2022-09-01T02:16:20.985Z,0.00
2022-09-01T02:17:20.895Z,0.00
2022-09-01T02:18:21.031Z,0.00
2022-09-01T02:19:20.748Z,0.00
2022-09-01T02:20:20.666Z,0.00
2022-09-01T02:21:20.604Z,0.00
2022-09-01T02:22:20.515Z,0.00
2022-09-01T02:23:20.432Z,0.00
2022-09-01T02:24:20.361Z,0.00
2022-09-01T02:25:20.283Z,0.00
2022-09-01T02:26:20.203Z,0.00
2022-09-01T02:27:20.128Z,0.00
2022-09-01T02:28:20.255Z,0.00
2022-09-01T02:29:19.974Z,0.00
2022-09-01T02:30:19.898Z,0.00
2022-09-01T02:31:19.816Z,0.00
2022-09-01T02:32:19.742Z,0.00
2022-09-01T02:33:19.669Z,0.00
2022-09-01T02:34:19.591Z,0.00
2022-09-01T02:35:19.512Z,0.00
2022-09-01T02:36:19.479Z,0.00
2022-09-01T02:37:19.354Z,0.00
2022-09-01T02:38:19.376Z,0.00
2022-09-01T02:39:19.208Z,0.00
2022-09-01T02:40:19.164Z,0.00
2022-09-01T02:41:19.051Z,0.00
2022-09-01T02:42:18.973Z,0.00
2022-09-01T02:43:18.896Z,0.00
2022-09-01T02:44:18.823Z,0.00
2022-09-01T02:45:18.738Z,0.00
2022-09-01T02:46:18.696Z,0.00
2022-09-01T02:47:18.584Z,0.00
2022-09-01T02:48:18.780Z,0.00
2022-09-01T02:49:18.435Z,0.00
2022-09-01T02:50:18.361Z,0.00
2022-09-01T02:51:18.280Z,0.00
2022-09-01T02:52:18.207Z,0.00
2022-09-01T02:53:18.127Z,0.00
2022-09-01T02:54:18.046Z,0.00
2022-09-01T02:55:17.971Z,0.00
2022-09-01T02:56:17.896Z,0.00
2022-09-01T02:57:17.821Z,0.00
2022-09-01T02:58:17.794Z,0.00
2022-09-01T02:59:17.665Z,0.00
2022-09-01T03:00:17.594Z,0.00
2022-09-01T03:01:17.564Z,0.00
2022-09-01T03:02:17.433Z,0.00
2022-09-01T03:03:17.366Z,0.00
2022-09-01T03:04:17.296Z,0.00
2022-09-01T03:05:17.201Z,0.00
2022-09-01T03:06:17.129Z,0.00
2022-09-01T03:07:17.056Z,0.00
2022-09-01T03:08:17.040Z,0.00
2022-09-01T03:09:16.894Z,0.00
2022-09-01T03:10:16.817Z,0.00
2022-09-01T03:11:16.740Z,0.00
2022-09-01T03:12:16.662Z,0.00
2022-09-01T03:13:16.583Z,0.00
2022-09-01T03:14:16.516Z,0.00
2022-09-01T03:15:16.437Z,0.00
2022-09-01T03:16:16.433Z,0.00
2022-09-01T03:17:16.279Z,0.00
2022-09-01T03:18:16.322Z,0.00
2022-09-01T03:19:16.123Z,0.00
2022-09-01T03:20:16.053Z,0.00
2022-09-01T03:21:15.968Z,0.00
2022-09-01T03:22:15.893Z,0.00
2022-09-01T03:23:15.817Z,0.00
2022-09-01T03:24:15.736Z,0.00
2022-09-01T03:25:15.662Z,0.00
2022-09-01T03:26:15.581Z,0.00
2022-09-01T03:27:15.509Z,0.00
2022-09-01T03:28:15.455Z,0.00
2022-09-01T03:29:15.356Z,0.00
2022-09-01T03:30:15.278Z,0.00
2022-09-01T03:31:15.233Z,0.00
2022-09-01T03:32:15.191Z,0.00
2022-09-01T03:33:15.051Z,0.00
2022-09-01T03:34:14.975Z,0.00
2022-09-01T03:35:14.894Z,0.00
2022-09-01T03:36:15.487Z,0.00
2022-09-01T03:37:14.738Z,0.00
2022-09-01T03:38:14.657Z,0.00
2022-09-01T03:39:16.798Z,0.00
2022-09-01T03:40:14.557Z,0.00
2022-09-01T03:41:14.427Z,0.00
2022-09-01T03:42:14.353Z,0.00
2022-09-01T03:43:14.279Z,0.00
2022-09-01T03:44:14.193Z,0.00
2022-09-01T03:45:14.121Z,0.00
2022-09-01T03:46:14.094Z,0.00
2022-09-01T03:47:13.975Z,0.00
2022-09-01T03:48:13.893Z,0.00
2022-09-01T03:49:13.814Z,0.00
2022-09-01T03:50:13.735Z,0.00
2022-09-01T03:51:13.658Z,0.00
2022-09-01T03:52:13.583Z,0.00
2022-09-01T03:53:13.510Z,0.00
2022-09-01T03:54:13.427Z,0.00
2022-09-01T03:55:13.351Z,0.00
2022-09-01T03:56:13.269Z,0.00
2022-09-01T03:57:13.947Z,0.00
2022-09-01T03:58:13.121Z,0.00
2022-09-01T03:59:13.042Z,0.00
2022-09-01T04:00:12.963Z,0.00
2022-09-01T04:01:13.872Z,0.00
2022-09-01T04:02:12.845Z,0.00
2022-09-01T04:03:12.736Z,0.00
2022-09-01T04:04:12.658Z,0.00
2022-09-01T04:05:12.581Z,0.00
2022-09-01T04:06:12.504Z,0.00
2022-09-01T04:07:15.515Z,0.00
2022-09-01T04:08:12.424Z,0.00
2022-09-01T04:09:12.280Z,0.00
2022-09-01T04:10:12.194Z,0.00
2022-09-01T04:11:12.119Z,0.00
2022-09-01T04:12:12.037Z,0.00
2022-09-01T04:13:11.957Z,0.00
2022-09-01T04:14:11.889Z,0.00
2022-09-01T04:15:11.809Z,0.00
2022-09-01T04:16:11.776Z,0.00
2022-09-01T04:17:11.650Z,0.00
2022-09-01T04:18:11.656Z,0.00
2022-09-01T04:19:11.499Z,0.00
2022-09-01T04:20:11.426Z,0.00
2022-09-01T04:21:11.348Z,0.00
2022-09-01T04:22:11.268Z,0.00
2022-09-01T04:23:11.195Z,0.00
2022-09-01T04:24:11.112Z,0.00
2022-09-01T04:25:11.034Z,0.00
2022-09-01T04:26:10.957Z,0.00
2022-09-01T04:27:10.887Z,0.00
2022-09-01T04:28:10.802Z,0.00
2022-09-01T04:29:10.729Z,0.00
2022-09-01T04:30:10.652Z,0.00
2022-09-01T04:31:10.702Z,0.00
2022-09-01T04:32:10.496Z,0.00
2022-09-01T04:33:10.418Z,0.00
2022-09-01T04:34:10.339Z,0.00
2022-09-01T04:35:10.261Z,0.00
2022-09-01T04:36:10.186Z,0.00
2022-09-01T04:37:10.128Z,0.00
2022-09-01T04:38:10.035Z,0.00
2022-09-01T04:39:11.898Z,0.00
2022-09-01T04:40:09.946Z,0.00
2022-09-01T04:41:09.803Z,0.00
2022-09-01T04:42:09.722Z,0.00
2022-09-01T04:43:09.650Z,0.00
2022-09-01T04:44:09.573Z,0.00
2022-09-01T04:45:10.830Z,0.00
2022-09-01T04:46:09.461Z,5.63
2022-09-01T04:47:09.346Z,5.63
2022-09-01T04:48:09.262Z,5.63
2022-09-01T04:49:09.182Z,5.63
2022-09-01T04:50:09.108Z,5.63
2022-09-01T04:51:09.029Z,5.63
2022-09-01T04:52:08.957Z,5.63
2022-09-01T04:53:08.872Z,5.63
2022-09-01T04:54:08.802Z,5.63
2022-09-01T04:55:08.725Z,5.63
2022-09-01T04:56:08.649Z,5.63
2022-09-01T04:57:08.566Z,11.25
2022-09-01T04:58:10.320Z,11.25
2022-09-01T04:59:08.418Z,11.25
2022-09-01T05:00:08.339Z,11.25
2022-09-01T05:01:08.310Z,11.25
2022-09-01T05:02:08.211Z,11.25
2022-09-01T05:03:08.109Z,11.25
2022-09-01T05:04:08.029Z,16.88
2022-09-01T05:05:07.953Z,16.88
2022-09-01T05:06:07.875Z,16.88
2022-09-01T05:07:07.795Z,16.88
2022-09-01T05:08:07.720Z,16.88
2022-09-01T05:09:07.645Z,16.88
2022-09-01T05:10:07.565Z,16.88
2022-09-01T05:11:07.490Z,22.50
2022-09-01T05:12:07.414Z,22.50
2022-09-01T05:13:07.335Z,22.50
2022-09-01T05:14:07.262Z,22.50
2022-09-01T05:15:07.181Z,22.50
2022-09-01T05:16:07.139Z,22.50
2022-09-01T05:17:07.030Z,22.50
2022-09-01T05:18:06.955Z,22.50
2022-09-01T05:19:06.873Z,28.13
2022-09-01T05:20:06.798Z,28.13
2022-09-01T05:21:06.721Z,28.13
2022-09-01T05:22:06.641Z,33.75
2022-09-01T05:23:06.568Z,33.75
2022-09-01T05:24:06.490Z,39.38
2022-09-01T05:25:06.410Z,39.38
2022-09-01T05:26:06.333Z,39.38
2022-09-01T05:27:06.261Z,39.38
2022-09-01T05:28:06.182Z,39.38
2022-09-01T05:29:06.101Z,39.38
2022-09-01T05:30:06.029Z,39.38
2022-09-01T05:31:05.968Z,39.38
2022-09-01T05:32:05.871Z,45.00
2022-09-01T05:33:05.798Z,45.00
2022-09-01T05:34:05.718Z,50.63
2022-09-01T05:35:05.642Z,50.63
2022-09-01T05:36:05.563Z,56.25
2022-09-01T05:37:05.488Z,56.25
2022-09-01T05:38:05.412Z,56.25
2022-09-01T05:39:05.334Z,61.88
2022-09-01T05:40:05.357Z,56.25
2022-09-01T05:41:05.176Z,61.88
2022-09-01T05:42:05.103Z,61.88
2022-09-01T05:43:05.030Z,61.88
2022-09-01T05:44:04.948Z,61.88
2022-09-01T05:45:04.873Z,61.88
2022-09-01T05:46:07.293Z,61.88
2022-09-01T05:47:04.767Z,61.88
2022-09-01T05:48:04.644Z,61.88
2022-09-01T05:49:04.563Z,61.88
2022-09-01T05:50:04.488Z,61.88
2022-09-01T05:51:04.410Z,67.50
2022-09-01T05:52:04.331Z,67.50
2022-09-01T05:53:04.258Z,67.50
2022-09-01T05:54:04.178Z,67.50
2022-09-01T05:55:04.105Z,61.88
2022-09-01T05:56:04.023Z,67.50
2022-09-01T05:57:17.771Z,67.50
2022-09-01T05:58:03.870Z,56.25
2022-09-01T05:59:33.573Z,67.50
2022-09-01T06:00:03.722Z,56.25
2022-09-01T06:01:03.642Z,67.50
2022-09-01T06:02:03.742Z,67.50
2022-09-01T06:03:03.557Z,67.50
2022-09-01T06:04:03.411Z,56.25
2022-09-01T06:05:03.333Z,73.13
2022-09-01T06:06:03.264Z,73.13
2022-09-01T06:07:05.814Z,73.13
2022-09-01T06:08:03.100Z,61.88
2022-09-01T06:09:03.028Z,73.13
2022-09-01T06:10:02.953Z,67.50
2022-09-01T06:11:02.873Z,73.13
2022-09-01T06:12:02.821Z,61.88
2022-09-01T06:13:02.721Z,73.13
2022-09-01T06:14:02.643Z,61.88
2022-09-01T06:15:02.570Z,73.13
2022-09-01T06:16:02.705Z,73.13
2022-09-01T06:17:02.416Z,78.75
2022-09-01T06:18:02.340Z,78.75
2022-09-01T06:19:02.259Z,78.75
2022-09-01T06:20:02.185Z,78.75
2022-09-01T06:21:02.105Z,78.75
2022-09-01T06:22:02.025Z,90.00
2022-09-01T06:23:01.952Z,95.63
2022-09-01T06:24:01.878Z,95.63
2022-09-01T06:25:02.941Z,90.00
2022-09-01T06:26:01.724Z,84.38
2022-09-01T06:27:01.669Z,90.00
2022-09-01T06:28:01.571Z,67.50
2022-09-01T06:29:01.509Z,90.00
2022-09-01T06:30:01.414Z,95.63
2022-09-01T06:31:01.406Z,101.25
2022-09-01T06:32:01.267Z,95.63
2022-09-01T06:33:01.192Z,95.63
2022-09-01T06:34:01.112Z,95.63
2022-09-01T06:35:01.034Z,95.63
2022-09-01T06:36:00.967Z,84.38
2022-09-01T06:37:00.886Z,90.00
2022-09-01T06:38:00.803Z,84.38
2022-09-01T06:39:00.726Z,84.38
2022-09-01T06:40:00.654Z,78.75
2022-09-01T06:41:00.572Z,84.38
2022-09-01T06:42:00.498Z,78.75
2022-09-01T06:43:00.421Z,78.75
2022-09-01T06:44:00.342Z,78.75
2022-09-01T06:45:00.270Z,84.38
2022-09-01T06:46:00.187Z,78.75
2022-09-01T06:47:00.273Z,78.75
2022-09-01T06:48:00.419Z,78.75
2022-09-01T06:48:59.958Z,73.13
2022-09-01T06:49:59.886Z,90.00
2022-09-01T06:51:17.373Z,84.38
2022-09-01T06:51:59.730Z,84.38
2022-09-01T06:53:59.797Z,84.38
2022-09-01T06:54:59.499Z,90.00
2022-09-01T06:55:59.428Z,95.63
2022-09-01T06:56:59.661Z,95.63
2022-09-01T06:58:07.226Z,95.63
2022-09-01T06:58:59.192Z,95.63
2022-09-01T06:59:59.120Z,95.63
2022-09-01T07:00:59.038Z,90.00
2022-09-01T07:02:02.479Z,95.63
2022-09-01T07:02:58.959Z,95.63
2022-09-01T07:03:58.813Z,95.63
2022-09-01T07:04:58.734Z,95.63
2022-09-01T07:06:00.847Z,95.63
2022-09-01T07:07:00.065Z,95.63
2022-09-01T07:08:06.145Z,95.63
2022-09-01T07:10:17.726Z,101.25
2022-09-01T07:13:05.702Z,101.25
2022-09-01T07:17:22.966Z,106.88
2022-09-01T07:17:57.739Z,112.50
2022-09-01T07:18:58.958Z,112.50
2022-09-01T07:19:57.581Z,118.13
2022-09-01T07:21:35.910Z,112.50
2022-09-01T07:23:05.789Z,112.50
2022-09-01T07:24:12.622Z,101.25
2022-09-01T07:25:11.796Z,106.88
2022-09-01T07:26:04.494Z,112.50
2022-09-01T07:26:57.421Z,112.50
2022-09-01T07:27:57.725Z,106.88
2022-09-01T07:29:56.814Z,95.63
2022-09-01T07:30:56.850Z,90.00
2022-09-01T07:32:56.586Z,95.63
2022-09-01T07:34:37.660Z,101.25
2022-09-01T07:34:56.435Z,106.88
2022-09-01T07:38:47.293Z,106.88
2022-09-01T07:39:56.158Z,106.88
2022-09-01T07:42:31.492Z,112.50
2022-09-01T07:43:55.746Z,118.13
2022-09-01T07:44:55.987Z,118.13
2022-09-01T07:45:59.041Z,123.75
2022-09-01T07:47:55.617Z,123.75
2022-09-01T07:49:28.918Z,129.38
2022-09-01T07:50:25.615Z,129.38
2022-09-01T07:51:55.222Z,129.38
2022-09-01T07:52:55.063Z,129.38
2022-09-01T07:53:54.988Z,129.38
2022-09-01T07:54:54.905Z,129.38
2022-09-01T07:55:54.828Z,129.38
2022-09-01T07:56:54.755Z,129.38
2022-09-01T07:58:01.913Z,129.38
2022-09-01T07:59:59.010Z,129.38
2022-09-01T08:00:58.919Z,129.38
2022-09-01T08:03:03.266Z,123.75
2022-09-01T08:04:03.153Z,123.75
2022-09-01T08:06:07.480Z,129.38
2022-09-01T08:07:07.388Z,129.38
2022-09-01T08:08:18.801Z,129.38
2022-09-01T08:09:07.246Z,129.38
2022-09-01T08:10:07.167Z,135.00
2022-09-01T08:11:07.084Z,140.63
2022-09-01T08:12:07.426Z,146.25
2022-09-01T08:13:06.931Z,140.63
2022-09-01T08:14:06.863Z,146.25
2022-09-01T08:15:38.002Z,151.88
2022-09-01T08:16:08.533Z,151.88
2022-09-01T08:18:06.581Z,140.63
2022-09-01T08:19:16.332Z,135.00
2022-09-01T08:20:06.401Z,129.38
2022-09-01T08:21:06.321Z,118.13
2022-09-01T08:22:06.246Z,118.13
2022-09-01T08:23:06.171Z,112.50
2022-09-01T08:24:06.095Z,123.75
2022-09-01T08:25:06.018Z,123.75
2022-09-01T08:26:05.944Z,106.88
2022-09-01T08:27:05.866Z,101.25
2022-09-01T08:28:05.793Z,95.63
2022-09-01T08:29:05.712Z,101.25
2022-09-01T08:30:05.637Z,95.63
2022-09-01T08:31:10.960Z,95.63
2022-09-01T08:32:05.488Z,106.88
2022-09-01T08:33:12.458Z,106.88
2022-09-01T08:34:05.336Z,101.25
2022-09-01T08:35:05.267Z,101.25
2022-09-01T08:36:05.183Z,101.25
2022-09-01T08:37:05.108Z,112.50
2022-09-01T08:38:05.029Z,112.50
2022-09-01T08:39:05.553Z,118.13
2022-09-01T08:40:04.987Z,123.75
2022-09-01T08:41:04.890Z,112.50
2022-09-01T08:42:04.728Z,106.88
2022-09-01T08:43:04.655Z,101.25
2022-09-01T08:44:04.576Z,106.88
2022-09-01T08:45:04.507Z,101.25
2022-09-01T08:46:04.449Z,95.63
2022-09-01T08:47:04.346Z,112.50
2022-09-01T08:48:37.090Z,112.50
2022-09-01T08:50:06.001Z,106.88
2022-09-01T08:51:07.142Z,101.25
2022-09-01T08:52:03.966Z,101.25
2022-09-01T08:53:11.009Z,95.63
2022-09-01T08:54:03.814Z,95.63
2022-09-01T08:55:03.736Z,90.00
2022-09-01T08:56:03.667Z,90.00
2022-09-01T08:57:03.588Z,84.38
2022-09-01T08:58:03.517Z,84.38
2022-09-01T08:59:03.439Z,90.00
2022-09-01T09:00:03.360Z,90.00
2022-09-01T09:01:03.390Z,90.00
2022-09-01T09:02:03.258Z,90.00
2022-09-01T09:03:03.197Z,95.63
2022-09-01T09:04:03.056Z,101.25
2022-09-01T09:05:15.620Z,78.75
2022-09-01T09:06:02.903Z,73.13
2022-09-01T09:07:02.827Z,78.75
2022-09-01T09:08:09.563Z,95.63
2022-09-01T09:09:02.675Z,106.88
2022-09-01T09:10:02.602Z,112.50
2022-09-01T09:11:02.530Z,101.25
2022-09-01T09:12:02.450Z,95.63
2022-09-01T09:13:02.371Z,101.25
2022-09-01T09:14:02.294Z,118.13
2022-09-01T09:15:02.217Z,118.13
2022-09-01T09:16:09.411Z,123.75
2022-09-01T09:17:02.071Z,140.63
2022-09-01T09:18:01.993Z,123.75
2022-09-01T09:19:01.912Z,112.50
2022-09-01T09:20:01.841Z,106.88
2022-09-01T09:21:01.764Z,112.50
2022-09-01T09:22:02.010Z,140.63
2022-09-01T09:23:02.159Z,157.50
2022-09-01T09:24:01.537Z,163.13
2022-09-01T09:25:01.462Z,163.13
2022-09-01T09:26:01.384Z,146.25
2022-09-01T09:27:01.310Z,174.38
2022-09-01T09:28:01.417Z,196.88
2022-09-01T09:29:01.160Z,174.38
2022-09-01T09:30:07.317Z,180.00
2022-09-01T09:31:01.070Z,185.63
2022-09-01T09:32:01.231Z,191.25
2022-09-01T09:33:46.737Z,180.00
2022-09-01T09:34:00.896Z,180.00
2022-09-01T09:35:00.708Z,174.38
2022-09-01T09:36:00.628Z,196.88
2022-09-01T09:37:00.554Z,185.63
2022-09-01T09:38:00.476Z,196.88
2022-09-01T09:39:01.397Z,191.25
2022-09-01T09:40:00.328Z,185.63
2022-09-01T09:42:00.235Z,174.38
2022-09-01T09:43:01.667Z,174.38
2022-09-01T09:44:00.028Z,174.38
2022-09-01T09:44:59.964Z,157.50
2022-09-01T09:45:59.904Z,140.63
2022-09-01T09:46:59.880Z,123.75
2022-09-01T09:47:59.727Z,106.88
2022-09-01T09:48:59.653Z,95.63
2022-09-01T09:49:59.570Z,95.63
2022-09-01T09:50:59.503Z,90.00
2022-09-01T09:51:59.429Z,78.75
2022-09-01T09:52:59.353Z,73.13
2022-09-01T09:53:59.274Z,67.50
2022-09-01T09:54:59.198Z,73.13
2022-09-01T09:55:59.126Z,73.13
2022-09-01T09:56:59.050Z,73.13
2022-09-01T09:57:58.976Z,73.13
2022-09-01T09:58:58.897Z,73.13
2022-09-01T10:00:01.397Z,78.75
2022-09-01T10:00:58.819Z,78.75
2022-09-01T10:01:58.674Z,84.38
2022-09-01T10:02:58.595Z,84.38
2022-09-01T10:03:58.561Z,90.00
2022-09-01T10:04:58.445Z,90.00
2022-09-01T10:05:58.374Z,101.25
2022-09-01T10:06:58.294Z,101.25
2022-09-01T10:07:58.220Z,106.88
2022-09-01T10:08:58.145Z,112.50
2022-09-01T10:09:58.072Z,118.13
2022-09-01T10:10:58.826Z,118.13
2022-09-01T10:11:57.919Z,118.13
2022-09-01T10:12:57.864Z,112.50
2022-09-01T10:13:57.770Z,112.50
2022-09-01T10:14:57.691Z,118.13
2022-09-01T10:15:57.621Z,106.88
2022-09-01T10:16:57.604Z,106.88
2022-09-01T10:18:57.393Z,106.88
2022-09-01T10:19:57.325Z,106.88
2022-09-01T10:20:57.262Z,106.88
2022-09-01T10:21:57.172Z,106.88
2022-09-01T10:22:57.098Z,112.50
2022-09-01T10:24:16.963Z,123.75
2022-09-01T10:24:56.949Z,123.75
2022-09-01T10:25:56.866Z,123.75
2022-09-01T10:26:56.804Z,118.13
2022-09-01T10:27:58.432Z,112.50
2022-09-01T10:28:56.638Z,101.25
2022-09-01T10:30:12.419Z,95.63
2022-09-01T10:30:56.545Z,95.63
2022-09-01T10:32:28.021Z,95.63
2022-09-01T10:32:58.869Z,90.00
2022-09-01T10:33:58.717Z,84.38
2022-09-01T10:34:59.504Z,84.38
2022-09-01T10:35:56.116Z,84.38
2022-09-01T10:36:57.100Z,84.38
2022-09-01T10:37:58.109Z,84.38
2022-09-01T10:39:00.744Z,78.75
2022-09-01T10:39:55.812Z,78.75
2022-09-01T10:40:55.771Z,78.75
2022-09-01T10:42:00.176Z,73.13
2022-09-01T10:42:55.587Z,67.50
2022-09-01T10:43:59.636Z,61.88
2022-09-01T10:44:55.441Z,61.88
2022-09-01T10:45:58.856Z,67.50
2022-09-01T10:46:59.963Z,61.88
2022-09-01T10:47:55.213Z,61.88
2022-09-01T10:48:55.750Z,61.88
2022-09-01T10:49:55.061Z,67.50
2022-09-01T10:50:54.988Z,73.13
2022-09-01T10:51:56.463Z,73.13
2022-09-01T10:52:54.838Z,78.75
2022-09-01T10:53:54.764Z,78.75
2022-09-01T10:54:55.814Z,73.13
2022-09-01T10:55:58.354Z,73.13
2022-09-01T10:56:54.534Z,78.75
2022-09-01T10:57:54.470Z,78.75
2022-09-01T10:59:56.419Z,84.38
2022-09-01T11:02:22.936Z,84.38
2022-09-01T11:02:54.117Z,84.38
2022-09-01T11:03:56.256Z,84.38
2022-09-01T11:04:53.956Z,84.38
2022-09-01T11:06:11.033Z,84.38
2022-09-01T11:08:01.794Z,95.63
2022-09-01T11:08:53.632Z,101.25
2022-09-01T11:09:57.415Z,101.25
2022-09-01T11:10:53.487Z,106.88
2022-09-01T11:11:53.409Z,118.13
2022-09-01T11:12:53.335Z,123.75
2022-09-01T11:13:53.252Z,129.38
2022-09-01T11:14:53.177Z,129.38
2022-09-01T11:15:53.105Z,135.00
2022-09-01T11:16:53.098Z,140.63
2022-09-01T11:17:52.956Z,146.25
2022-09-01T11:18:52.879Z,151.88
2022-09-01T11:19:52.804Z,163.13
2022-09-01T11:20:52.731Z,163.13
2022-09-01T11:21:52.655Z,180.00
2022-09-01T11:22:52.861Z,180.00
2022-09-01T11:23:52.771Z,191.25
2022-09-01T11:25:00.187Z,202.50
2022-09-01T11:26:21.503Z,225.00
2022-09-01T11:26:52.279Z,241.88
2022-09-01T11:27:52.222Z,320.63
2022-09-01T11:28:52.134Z,348.75
2022-09-01T11:29:52.057Z,326.25
2022-09-01T11:30:51.991Z,303.75
2022-09-01T11:31:51.990Z,303.75
2022-09-01T11:32:51.830Z,309.38
2022-09-01T11:33:51.775Z,365.63
2022-09-01T11:34:51.682Z,337.50
2022-09-01T11:35:51.602Z,326.25
2022-09-01T11:36:51.942Z,326.25
2022-09-01T11:37:51.455Z,309.38
2022-09-01T11:38:51.382Z,298.13
2022-09-01T11:39:51.307Z,298.13
2022-09-01T11:40:51.271Z,275.63
2022-09-01T11:41:55.802Z,264.38
2022-09-01T11:42:51.083Z,348.75
2022-09-01T11:43:51.012Z,371.25
2022-09-01T11:44:50.938Z,376.88
2022-09-01T11:45:50.962Z,348.75
2022-09-01T11:46:50.784Z,331.88
2022-09-01T11:47:50.718Z,326.25
2022-09-01T11:48:52.142Z,326.25
2022-09-01T11:49:50.568Z,331.88
2022-09-01T11:50:50.490Z,236.25
2022-09-01T11:51:50.421Z,247.50
2022-09-01T11:52:50.346Z,343.13
2022-09-01T11:53:50.276Z,365.63
2022-09-01T11:54:50.199Z,354.38
2022-09-01T11:55:50.118Z,343.13
2022-09-01T11:56:50.050Z,241.88
2022-09-01T11:57:49.975Z,247.50
2022-09-01T11:58:49.903Z,264.38
2022-09-01T11:59:49.835Z,286.88
2022-09-01T12:00:49.757Z,309.38
2022-09-01T12:01:49.785Z,331.88
2022-09-01T12:02:49.744Z,309.38
2022-09-01T12:03:49.539Z,303.75
2022-09-01T12:04:49.466Z,303.75
2022-09-01T12:05:49.398Z,438.75
2022-09-01T12:06:49.317Z,433.13
2022-09-01T12:07:49.251Z,303.75
2022-09-01T12:08:49.173Z,444.38
2022-09-01T12:09:49.099Z,455.63
2022-09-01T12:10:49.026Z,376.88
2022-09-01T12:11:48.956Z,365.63
2022-09-01T12:12:48.880Z,433.13
2022-09-01T12:13:48.806Z,438.75
2022-09-01T12:15:04.777Z,438.75
2022-09-01T12:16:14.017Z,450.00
2022-09-01T12:16:48.604Z,1293.75
2022-09-01T12:17:48.522Z,2385.00
2022-09-01T12:18:48.453Z,2981.25
2022-09-01T12:19:48.375Z,2885.63
2022-09-01T12:21:49.433Z,3245.63
2022-09-01T12:22:48.165Z,4567.50
2022-09-01T12:23:48.121Z,5692.50
2022-09-01T12:24:48.026Z,5636.25
2022-09-01T12:25:47.955Z,4831.88
2022-09-01T12:26:47.909Z,2874.38
2022-09-01T12:27:47.823Z,1721.25
2022-09-01T12:28:47.747Z,1541.25
2022-09-01T12:29:47.680Z,1558.13
2022-09-01T12:30:47.621Z,1485.00
2022-09-01T12:31:47.606Z,320.63
2022-09-01T12:32:47.480Z,298.13
2022-09-01T12:33:47.415Z,292.50
2022-09-01T12:34:47.351Z,236.25
2022-09-01T12:35:47.283Z,225.00
2022-09-01T12:37:47.163Z,230.63
2022-09-01T12:38:47.080Z,236.25
2022-09-01T12:39:47.020Z,236.25
2022-09-01T12:40:47.429Z,236.25
2022-09-01T12:41:47.216Z,241.88
2022-09-01T12:42:46.811Z,236.25
2022-09-01T12:43:49.662Z,236.25
2022-09-01T12:44:46.679Z,236.25
2022-09-01T12:45:46.670Z,230.63
2022-09-01T12:46:47.295Z,1271.25
2022-09-01T12:47:46.471Z,270.00
2022-09-01T12:48:46.621Z,241.88
2022-09-01T12:49:50.828Z,208.13
2022-09-01T12:50:46.273Z,185.63
2022-09-01T12:51:46.204Z,180.00
2022-09-01T12:52:46.128Z,174.38
2022-09-01T12:53:46.063Z,174.38
2022-09-01T12:54:45.992Z,163.13
2022-09-01T12:55:49.012Z,151.88
2022-09-01T12:56:45.869Z,135.00
2022-09-01T12:57:45.785Z,135.00
2022-09-01T12:58:45.722Z,123.75
2022-09-01T12:59:45.645Z,112.50
2022-09-01T13:00:45.616Z,106.88
2022-09-01T13:01:45.686Z,106.88
2022-09-01T13:02:45.599Z,101.25
2022-09-01T13:03:45.371Z,95.63
2022-09-01T13:04:45.300Z,90.00
2022-09-01T13:05:45.230Z,90.00
2022-09-01T13:06:45.158Z,84.38
2022-09-01T13:07:45.090Z,84.38
2022-09-01T13:08:46.192Z,84.38
2022-09-01T13:09:45.923Z,84.38
2022-09-01T13:10:44.885Z,84.38
2022-09-01T13:12:44.735Z,78.75
2022-09-01T13:13:44.661Z,78.75
2022-09-01T13:14:44.595Z,73.13
2022-09-01T13:15:44.526Z,73.13
2022-09-01T13:16:44.489Z,78.75
2022-09-01T13:17:44.387Z,78.75
2022-09-01T13:19:44.239Z,84.38
2022-09-01T13:20:44.167Z,84.38
2022-09-01T13:21:44.098Z,84.38
2022-09-01T13:22:44.027Z,84.38
2022-09-01T13:23:43.951Z,84.38
2022-09-01T13:24:43.882Z,84.38